Time;durP1;ratioP1;P1;durP2;ratioP2;P2;SDS_P1;SDS_P2;PMS_P1;PMS_P2;Temp;Humidity;BMP_temperature;BMP_pressure;BME280_temperature;BME280_humidity;BME280_pressure;Samples;Min_cycle;Max_cycle;Signal;HPM_P1;HPM_P2
2020/12/13 00:01:59;;;;;;;64.55;27.73;;;10.00;99.90;;;;;;3605916;39;20336;-76
2020/12/13 00:04:26;;;;;;;73.95;26.85;;;10.00;99.90;;;;;;3610831;39;20351;-75
2020/12/13 00:06:53;;;;;;;79.55;27.98;;;10.00;99.90;;;;;;3609879;39;20276;-76
2020/12/13 00:09:19;;;;;;;52.08;23.90;;;10.00;99.90;;;;;;3609806;39;20375;-76
2020/12/13 00:11:45;;;;;;;61.83;24.98;;;10.00;99.90;;;;;;3611313;39;20380;-76
2020/12/13 00:14:12;;;;;;;64.40;24.88;;;10.00;99.90;;;;;;3613359;39;20344;-76
2020/12/13 00:16:38;;;;;;;62.88;24.13;;;10.00;99.90;;;;;;3615769;39;20252;-76
2020/12/13 00:19:05;;;;;;;51.13;22.33;;;10.10;99.90;;;;;;3611971;39;20259;-76
2020/12/13 00:21:32;;;;;;;52.63;23.05;;;10.10;99.90;;;;;;3612507;39;20256;-76
2020/12/13 00:23:59;;;;;;;53.80;23.42;;;10.10;99.90;;;;;;3613589;39;20256;-76
2020/12/13 00:26:25;;;;;;;56.33;22.48;;;10.00;99.90;;;;;;3611950;39;20287;-76
2020/12/13 00:28:51;;;;;;;59.13;24.35;;;10.00;99.90;;;;;;3611794;39;20292;-76
2020/12/13 00:31:18;;;;;;;52.17;22.65;;;10.00;99.90;;;;;;3611188;39;20348;-76
2020/12/13 00:33:45;;;;;;;53.72;22.25;;;10.00;99.90;;;;;;3611641;39;20264;-76
2020/12/13 00:36:11;;;;;;;51.13;21.38;;;10.10;99.90;;;;;;3613891;39;20721;-76
2020/12/13 00:38:39;;;;;;;49.35;22.25;;;10.10;99.90;;;;;;3612722;39;20281;-76
2020/12/13 00:41:05;;;;;;;53.28;20.60;;;10.20;99.90;;;;;;3611323;39;20236;-76
2020/12/13 00:43:32;;;;;;;47.75;20.10;;;10.20;99.90;;;;;;3611106;39;20263;-76
2020/12/13 00:45:59;;;;;;;58.13;22.00;;;10.10;99.90;;;;;;3613837;39;20279;-76
2020/12/13 00:48:26;;;;;;;46.85;19.40;;;10.10;99.90;;;;;;3613584;39;20291;-76
2020/12/13 00:50:52;;;;;;;45.25;20.50;;;10.10;99.90;;;;;;3611589;39;20260;-76
2020/12/13 00:53:19;;;;;;;50.72;21.17;;;10.10;99.90;;;;;;3611458;39;20296;-76
2020/12/13 00:55:47;;;;;;;48.40;19.88;;;10.10;99.90;;;;;;3615130;39;20228;-76
2020/12/13 00:58:14;;;;;;;49.05;20.45;;;10.20;99.90;;;;;;3610981;39;20579;-76
2020/12/13 01:00:41;;;;;;;55.88;20.38;;;10.20;99.90;;;;;;3611287;39;20245;-76
2020/12/13 01:03:07;;;;;;;41.17;20.20;;;10.20;99.90;;;;;;3611320;39;20307;-76
2020/12/13 01:05:34;;;;;;;45.83;20.10;;;10.10;99.90;;;;;;3610997;39;20340;-76
2020/12/13 01:08:00;;;;;;;51.42;20.40;;;10.10;99.90;;;;;;3611066;39;20266;-76
2020/12/13 01:10:27;;;;;;;52.00;20.98;;;10.10;99.90;;;;;;3611134;39;20350;-76
2020/12/13 01:12:54;;;;;;;48.85;20.13;;;10.00;99.90;;;;;;3610854;39;20348;-76
2020/12/13 01:15:21;;;;;;;51.75;20.65;;;10.00;99.90;;;;;;3611062;39;20290;-76
2020/12/13 01:17:49;;;;;;;54.33;20.45;;;10.00;99.90;;;;;;3610953;39;20240;-76
2020/12/13 01:20:18;;;;;;;47.03;20.20;;;10.00;99.90;;;;;;3614025;39;20372;-76
2020/12/13 01:22:44;;;;;;;47.25;21.95;;;10.00;99.90;;;;;;3613165;39;20260;-76
2020/12/13 01:25:14;;;;;;;43.30;18.77;;;10.10;99.90;;;;;;3612573;39;20720;-76
2020/12/13 01:27:41;;;;;;;46.58;20.67;;;10.10;99.90;;;;;;3610698;39;20259;-76
2020/12/13 01:30:09;;;;;;;45.83;20.13;;;10.10;99.90;;;;;;3610816;39;20254;-76
2020/12/13 01:32:39;;;;;;;49.22;20.33;;;10.00;99.90;;;;;;3611910;39;20257;-76
2020/12/13 01:35:07;;;;;;;45.90;21.98;;;10.00;99.90;;;;;;3610604;39;20372;-76
2020/12/13 01:37:34;;;;;;;42.05;19.05;;;10.10;99.90;;;;;;3610365;39;20252;-76
2020/12/13 01:40:00;;;;;;;51.92;20.65;;;10.10;99.90;;;;;;3610935;39;20248;-76
2020/12/13 01:42:27;;;;;;;50.38;20.83;;;10.10;99.90;;;;;;3614683;39;20255;-76
2020/12/13 01:44:53;;;;;;;52.22;22.35;;;10.20;99.90;;;;;;3610658;39;20736;-76
2020/12/13 01:47:22;;;;;;;50.33;20.77;;;10.30;99.90;;;;;;3613418;39;20372;-76
2020/12/13 01:49:49;;;;;;;48.15;20.40;;;10.30;99.90;;;;;;3618350;32;20352;-76
2020/12/13 01:55:05;;;;;;;46.35;20.40;;;10.40;99.90;;;;;;3615778;32;20270;-76
2020/12/13 01:57:34;;;;;;;44.47;19.30;;;10.40;99.90;;;;;;3615596;39;20252;-76
2020/12/13 02:00:06;;;;;;;48.50;19.80;;;10.40;99.90;;;;;;3614208;39;20255;-76
2020/12/13 02:02:39;;;;;;;40.00;19.48;;;10.40;99.90;;;;;;3611320;39;20248;-76
2020/12/13 02:05:08;;;;;;;47.15;19.48;;;10.40;99.90;;;;;;3612523;39;20299;-76
2020/12/13 02:07:37;;;;;;;44.47;20.88;;;10.40;99.90;;;;;;3620243;32;20276;-76
2020/12/13 02:10:07;;;;;;;51.65;22.10;;;10.50;99.90;;;;;;3610767;39;20268;-76
2020/12/13 02:12:33;;;;;;;55.30;21.95;;;10.50;99.90;;;;;;3610485;39;20271;-76
2020/12/13 02:15:00;;;;;;;47.13;20.95;;;10.50;99.90;;;;;;3610434;39;20299;-76
2020/12/13 02:17:27;;;;;;;43.85;20.45;;;10.60;99.90;;;;;;3614440;32;20255;-76
2020/12/13 02:19:57;;;;;;;45.67;21.30;;;10.50;99.90;;;;;;3610908;39;20344;-76
2020/12/13 02:22:24;;;;;;;49.95;23.15;;;10.50;99.90;;;;;;3610606;39;20236;-76
2020/12/13 02:24:51;;;;;;;52.40;22.92;;;10.50;99.90;;;;;;3610652;39;20380;-76
2020/12/13 02:27:17;;;;;;;61.10;25.88;;;10.40;99.90;;;;;;3610180;39;20352;-76
2020/12/13 02:29:44;;;;;;;50.15;22.10;;;10.30;99.90;;;;;;3612712;39;20420;-76
2020/12/13 02:32:10;;;;;;;60.30;24.50;;;10.20;99.90;;;;;;3610903;39;20268;-76
2020/12/13 02:34:37;;;;;;;63.53;26.02;;;10.10;99.90;;;;;;3611496;39;20349;-76
2020/12/13 02:37:03;;;;;;;71.32;26.85;;;10.10;99.90;;;;;;3612940;39;20332;-76
2020/12/13 02:39:30;;;;;;;63.10;25.02;;;10.10;99.90;;;;;;3610452;39;20275;-76
2020/12/13 02:41:58;;;;;;;67.90;25.40;;;10.00;99.90;;;;;;3616547;39;20363;-76
2020/12/13 02:44:26;;;;;;;64.97;25.85;;;10.00;99.90;;;;;;3612965;39;20248;-76
2020/12/13 02:46:52;;;;;;;59.33;27.48;;;10.00;99.90;;;;;;3626615;32;20347;-76
2020/12/13 02:49:19;;;;;;;57.72;24.38;;;10.00;99.90;;;;;;3625341;32;20325;-76
2020/12/13 02:51:45;;;;;;;62.30;27.60;;;10.00;99.90;;;;;;3614226;39;20340;-76
2020/12/13 02:54:12;;;;;;;65.22;26.52;;;10.00;99.90;;;;;;3610232;39;20252;-76
2020/12/13 02:56:42;;;;;;;63.17;25.63;;;10.00;99.90;;;;;;3610224;39;20268;-76
2020/12/13 02:59:09;;;;;;;57.95;26.88;;;10.00;99.90;;;;;;3609733;39;20736;-76
2020/12/13 03:01:35;;;;;;;65.82;27.00;;;10.00;99.90;;;;;;3610051;39;20243;-76
2020/12/13 03:04:02;;;;;;;66.60;28.73;;;10.00;99.90;;;;;;3613483;39;20584;-76
2020/12/13 03:06:29;;;;;;;63.53;27.45;;;10.00;99.90;;;;;;3610317;39;20260;-76
2020/12/13 03:08:56;;;;;;;61.95;26.33;;;10.00;99.90;;;;;;3613135;39;20277;-76
2020/12/13 03:11:23;;;;;;;59.22;26.90;;;10.00;99.90;;;;;;3610705;39;20292;-75
2020/12/13 03:13:51;;;;;;;63.20;26.88;;;10.10;99.90;;;;;;3613552;39;20279;-75
2020/12/13 03:16:18;;;;;;;57.67;25.75;;;10.10;99.90;;;;;;3627098;32;20252;-76
2020/12/13 03:18:45;;;;;;;64.00;28.40;;;10.10;99.90;;;;;;3613515;39;20331;-76
2020/12/13 03:21:11;;;;;;;66.20;27.55;;;10.10;99.90;;;;;;3610757;39;20278;-76
2020/12/13 03:23:38;;;;;;;53.60;25.88;;;10.10;99.90;;;;;;3610838;39;20263;-76
2020/12/13 03:26:04;;;;;;;66.32;26.60;;;10.20;99.90;;;;;;3612478;39;20399;-76
2020/12/13 03:28:31;;;;;;;52.72;24.77;;;10.30;99.90;;;;;;3614691;39;20720;-76
2020/12/13 03:31:15;;;;;;;55.83;25.50;;;10.30;99.90;;;;;;3616876;39;20220;-75
2020/12/13 03:33:42;;;;;;;56.72;26.58;;;10.30;99.90;;;;;;3611245;39;20776;-75
2020/12/13 03:36:08;;;;;;;61.80;26.08;;;10.40;99.90;;;;;;3612935;39;20271;-75
2020/12/13 03:38:35;;;;;;;60.90;26.52;;;10.40;99.90;;;;;;3610631;39;20413;-76
2020/12/13 03:41:01;;;;;;;55.42;27.73;;;10.40;99.90;;;;;;3613582;39;20270;-75
2020/12/13 03:43:27;;;;;;;57.95;26.65;;;10.40;99.90;;;;;;3612614;39;20408;-75
2020/12/13 03:45:54;;;;;;;60.05;26.42;;;10.40;99.90;;;;;;3610714;39;20398;-76
2020/12/13 03:48:21;;;;;;;54.72;25.67;;;10.20;99.90;;;;;;3613027;39;20284;-76
2020/12/13 03:50:48;;;;;;;59.47;25.77;;;10.20;99.90;;;;;;3613163;39;20288;-76
2020/12/13 03:53:15;;;;;;;60.83;26.13;;;10.10;99.90;;;;;;3611774;39;20324;-75
2020/12/13 03:55:42;;;;;;;53.58;23.73;;;10.20;99.90;;;;;;3612455;39;20352;-76
2020/12/13 03:58:09;;;;;;;59.80;27.13;;;10.10;99.90;;;;;;3612615;39;20283;-75
2020/12/13 04:00:35;;;;;;;59.53;26.88;;;10.10;99.90;;;;;;3614526;39;20348;-75
2020/12/13 04:03:04;;;;;;;56.40;25.45;;;10.10;99.90;;;;;;3623435;32;20345;-75
2020/12/13 04:05:33;;;;;;;54.75;26.45;;;10.10;99.90;;;;;;3614787;32;20294;-75
2020/12/13 04:08:00;;;;;;;60.65;26.90;;;10.10;99.90;;;;;;3617213;32;20776;-76
2020/12/13 04:10:27;;;;;;;58.58;25.92;;;10.10;99.90;;;;;;3612146;39;20355;-76
2020/12/13 04:12:54;;;;;;;61.97;27.55;;;10.10;99.90;;;;;;3627389;32;20256;-75
2020/12/13 04:15:21;;;;;;;55.75;23.67;;;10.10;99.90;;;;;;3611245;39;20329;-76
2020/12/13 04:17:48;;;;;;;54.45;25.88;;;10.20;99.90;;;;;;3611383;39;20690;-76
2020/12/13 04:20:15;;;;;;;49.20;25.17;;;10.20;99.90;;;;;;3612178;39;20256;-76
2020/12/13 04:22:43;;;;;;;54.17;24.77;;;10.20;99.90;;;;;;3612485;39;20272;-77
2020/12/13 04:25:10;;;;;;;55.92;24.65;;;10.10;99.90;;;;;;3612613;39;20298;-76
2020/12/13 04:27:36;;;;;;;54.47;24.58;;;10.00;99.90;;;;;;3612522;39;20340;-77
2020/12/13 04:30:04;;;;;;;53.38;25.73;;;10.10;99.90;;;;;;3624537;32;20276;-77
2020/12/13 04:32:30;;;;;;;51.53;26.50;;;10.10;99.90;;;;;;3612393;39;20428;-77
2020/12/13 04:34:57;;;;;;;49.72;22.77;;;10.10;99.90;;;;;;3617385;39;20275;-77
2020/12/13 04:37:23;;;;;;;49.85;24.55;;;10.20;99.90;;;;;;3613997;39;20264;-76
2020/12/13 04:39:52;;;;;;;51.25;24.80;;;10.20;99.90;;;;;;3611594;39;20735;-76
2020/12/13 04:42:19;;;;;;;49.10;22.70;;;10.20;99.90;;;;;;3611647;39;20275;-76
2020/12/13 04:44:47;;;;;;;52.22;24.55;;;10.30;99.90;;;;;;3611671;39;20357;-77
2020/12/13 04:47:17;;;;;;;51.45;25.45;;;10.20;99.90;;;;;;3613434;39;21084;-76
2020/12/13 04:49:48;;;;;;;49.70;25.00;;;10.20;99.90;;;;;;3611057;39;20275;-76
2020/12/13 04:52:15;;;;;;;62.40;24.75;;;10.20;99.90;;;;;;3611775;39;20256;-76
2020/12/13 04:54:48;;;;;;;57.25;24.73;;;10.10;99.90;;;;;;3611781;39;20385;-76
2020/12/13 04:57:16;;;;;;;48.42;23.08;;;10.00;99.90;;;;;;3614388;39;20248;-76
2020/12/13 04:59:43;;;;;;;48.28;23.10;;;10.00;99.90;;;;;;3611709;39;20741;-76
2020/12/13 05:02:12;;;;;;;50.08;23.33;;;10.10;99.90;;;;;;3612889;39;20291;-76
2020/12/13 05:04:39;;;;;;;50.28;23.80;;;10.20;99.90;;;;;;3611172;39;20595;-76
2020/12/13 05:07:06;;;;;;;49.63;23.60;;;10.20;99.90;;;;;;3629302;32;20289;-76
2020/12/13 05:09:32;;;;;;;45.78;22.60;;;10.30;99.90;;;;;;3614652;39;20340;-76
2020/12/13 05:11:59;;;;;;;50.53;23.08;;;10.30;99.90;;;;;;3610898;39;20268;-76
2020/12/13 05:14:26;;;;;;;56.35;24.30;;;10.30;99.90;;;;;;3613354;39;20328;-76
2020/12/13 05:17:07;;;;;;;60.03;25.85;;;10.30;99.90;;;;;;3612519;39;20248;-76
2020/12/13 05:19:34;;;;;;;46.60;22.25;;;10.30;99.90;;;;;;3648925;32;20251;-76
2020/12/13 05:22:02;;;;;;;43.53;21.15;;;10.30;99.90;;;;;;3615500;39;20244;-76
2020/12/13 05:24:29;;;;;;;54.67;24.52;;;10.30;99.90;;;;;;3612267;39;20252;-76
2020/12/13 05:27:00;;;;;;;46.90;21.98;;;10.30;99.90;;;;;;3611748;39;20350;-76
2020/12/13 05:29:32;;;;;;;47.15;20.45;;;10.20;99.90;;;;;;3611188;39;20347;-76
2020/12/13 05:32:16;;;;;;;51.45;23.10;;;10.30;99.90;;;;;;3610928;39;20274;-76
2020/12/13 05:34:45;;;;;;;49.55;24.35;;;10.20;99.90;;;;;;3616691;32;20305;-76
2020/12/13 05:37:16;;;;;;;58.97;23.65;;;10.10;99.90;;;;;;3638999;32;20284;-76
2020/12/13 05:39:49;;;;;;;51.35;22.88;;;10.10;99.90;;;;;;3611027;39;20271;-76
2020/12/13 05:42:29;;;;;;;49.70;21.70;;;10.00;99.90;;;;;;3613784;39;20264;-76
2020/12/13 05:53:10;;;;;;;56.78;24.15;;;10.00;99.90;;;;;;3596332;32;20268;-75
2020/12/13 05:55:37;;;;;;;47.45;21.98;;;10.00;99.90;;;;;;3613684;39;20351;-76
2020/12/13 05:58:03;;;;;;;51.40;22.55;;;10.00;99.90;;;;;;3610700;39;20419;-75
2020/12/13 06:00:31;;;;;;;54.55;23.75;;;10.00;99.90;;;;;;3614289;39;20348;-75
2020/12/13 06:03:00;;;;;;;49.65;21.73;;;10.00;99.90;;;;;;3611239;39;20272;-75
2020/12/13 06:05:28;;;;;;;54.38;21.85;;;10.10;99.90;;;;;;3610829;39;20260;-76
2020/12/13 06:07:58;;;;;;;46.53;23.00;;;10.00;99.90;;;;;;3615255;39;20264;-75
2020/12/13 06:10:25;;;;;;;43.67;21.08;;;10.10;99.90;;;;;;3610598;39;20248;-75
2020/12/13 06:12:59;;;;;;;47.58;22.27;;;10.10;99.90;;;;;;3609921;39;20395;-76
2020/12/13 06:15:30;;;;;;;43.33;21.70;;;10.20;99.90;;;;;;3613401;39;20274;-76
2020/12/13 06:17:57;;;;;;;46.47;22.17;;;10.20;99.90;;;;;;3610474;39;20375;-76
2020/12/13 06:20:24;;;;;;;48.15;21.77;;;10.30;99.90;;;;;;3617842;39;20249;-76
2020/12/13 06:22:52;;;;;;;50.33;22.65;;;10.30;99.90;;;;;;3615798;39;20256;-76
2020/12/13 06:25:20;;;;;;;50.83;23.00;;;10.30;99.90;;;;;;3610195;39;20372;-76
2020/12/13 06:27:47;;;;;;;49.05;22.63;;;10.30;99.90;;;;;;3610405;39;20272;-76
2020/12/13 06:30:15;;;;;;;53.65;22.98;;;10.30;99.90;;;;;;3610285;39;20256;-76
2020/12/13 06:32:45;;;;;;;50.90;22.27;;;10.20;99.90;;;;;;3617394;39;20256;-76
2020/12/13 06:35:13;;;;;;;51.47;22.65;;;10.10;99.90;;;;;;3635782;32;21164;-76
2020/12/13 06:37:39;;;;;;;47.15;21.58;;;10.00;99.90;;;;;;3610970;39;20757;-76
2020/12/13 06:40:07;;;;;;;44.95;21.20;;;9.90;99.90;;;;;;3610568;39;20260;-76
2020/12/13 06:42:39;;;;;;;44.05;20.67;;;10.00;99.90;;;;;;3610383;39;20344;-76
2020/12/13 06:45:07;;;;;;;47.30;22.35;;;10.00;99.90;;;;;;3630594;32;20259;-76
2020/12/13 06:47:37;;;;;;;45.13;21.73;;;10.00;99.90;;;;;;3610929;39;20356;-76
2020/12/13 06:50:05;;;;;;;45.03;21.88;;;10.00;99.90;;;;;;3619440;32;20336;-76
2020/12/13 06:52:33;;;;;;;44.60;21.92;;;9.90;99.90;;;;;;3637628;32;20271;-76
2020/12/13 06:55:01;;;;;;;42.53;22.70;;;9.90;99.90;;;;;;3609927;39;20308;-76
2020/12/13 06:57:31;;;;;;;52.78;21.00;;;10.00;99.90;;;;;;3609991;39;20259;-76
2020/12/13 06:59:57;;;;;;;44.13;20.98;;;10.00;99.90;;;;;;3611025;39;20248;-76
2020/12/13 07:02:47;;;;;;;41.83;20.90;;;10.00;99.90;;;;;;3609928;39;20264;-75
2020/12/13 07:05:15;;;;;;;43.17;22.38;;;10.00;99.90;;;;;;3610719;39;20286;-75
2020/12/13 07:07:46;;;;;;;41.17;21.08;;;10.10;99.90;;;;;;3611463;32;20280;-75
2020/12/13 07:10:13;;;;;;;46.60;21.63;;;10.10;99.90;;;;;;3616291;32;20262;-75
2020/12/13 07:12:51;;;;;;;43.45;20.75;;;10.00;99.90;;;;;;3609977;39;20276;-76
2020/12/13 07:15:25;;;;;;;42.08;21.38;;;9.90;99.90;;;;;;3613308;39;20247;-77
2020/12/13 07:17:52;;;;;;;45.92;21.40;;;9.80;99.90;;;;;;3610070;32;20255;-76
2020/12/13 07:20:21;;;;;;;45.83;21.35;;;9.70;99.90;;;;;;3613784;39;20348;-76
2020/12/13 07:22:47;;;;;;;41.80;21.52;;;9.70;99.90;;;;;;3613236;39;20271;-77
2020/12/13 07:25:14;;;;;;;49.13;25.05;;;9.70;99.90;;;;;;3613444;39;20122;-76
2020/12/13 07:27:42;;;;;;;41.78;22.15;;;9.70;99.90;;;;;;3615475;39;20344;-76
2020/12/13 07:30:12;;;;;;;41.67;21.73;;;9.70;99.90;;;;;;3612375;39;20267;-76
2020/12/13 07:32:39;;;;;;;56.35;21.75;;;9.70;99.90;;;;;;3618227;32;20260;-76
2020/12/13 07:35:12;;;;;;;43.38;23.17;;;9.60;99.90;;;;;;3611879;39;20252;-76
2020/12/13 07:37:40;;;;;;;45.10;20.88;;;9.60;99.90;;;;;;3614017;39;20316;-78
2020/12/13 07:40:11;;;;;;;40.65;20.88;;;9.60;99.90;;;;;;3612568;39;20347;-76
2020/12/13 07:42:38;;;;;;;37.78;18.42;;;9.70;99.90;;;;;;3614704;39;20240;-78
2020/12/13 07:45:05;;;;;;;39.70;19.60;;;9.60;99.90;;;;;;3616869;39;20248;-78
2020/12/13 07:47:32;;;;;;;34.58;17.27;;;9.60;99.90;;;;;;3615632;39;20291;-78
2020/12/13 07:50:05;;;;;;;34.70;18.08;;;9.50;99.90;;;;;;3629160;32;20256;-77
2020/12/13 07:52:32;;;;;;;34.25;16.90;;;9.50;99.90;;;;;;3603962;39;20310;-78
2020/12/13 07:55:07;;;;;;;41.20;18.33;;;9.60;99.90;;;;;;3615623;32;20275;-78
2020/12/13 07:57:35;;;;;;;31.75;16.88;;;9.70;99.90;;;;;;3613465;39;20286;-77
2020/12/13 08:00:09;;;;;;;30.38;17.33;;;9.60;99.90;;;;;;3620159;32;20278;-78
2020/12/13 08:02:35;;;;;;;29.23;17.75;;;9.50;99.90;;;;;;3614280;39;20337;-78
2020/12/13 08:05:02;;;;;;;37.92;16.92;;;9.50;99.90;;;;;;3612771;39;20248;-78
2020/12/13 08:07:30;;;;;;;34.78;16.70;;;9.50;99.90;;;;;;3612903;39;20248;-77
2020/12/13 08:09:58;;;;;;;30.35;16.23;;;9.50;99.90;;;;;;3618592;39;20255;-77
2020/12/13 08:12:36;;;;;;;32.30;15.75;;;9.50;99.90;;;;;;3614215;39;20252;-78
2020/12/13 08:15:03;;;;;;;31.45;15.73;;;9.50;99.90;;;;;;3639169;32;20256;-77
2020/12/13 08:17:30;;;;;;;25.50;15.07;;;9.60;99.90;;;;;;3604225;39;20292;-78
2020/12/13 08:20:01;;;;;;;29.40;14.63;;;9.60;99.90;;;;;;3615734;39;20248;-78
2020/12/13 08:22:29;;;;;;;33.33;15.95;;;9.60;99.90;;;;;;3616313;39;20256;-78
2020/12/13 08:24:58;;;;;;;32.88;15.32;;;9.60;99.90;;;;;;3612726;39;20340;-78
2020/12/13 08:27:27;;;;;;;30.58;14.63;;;9.50;99.90;;;;;;3612924;39;20860;-78
2020/12/13 08:29:56;;;;;;;28.73;14.52;;;9.50;99.90;;;;;;3618160;39;20360;-78
2020/12/13 08:32:23;;;;;;;27.25;14.13;;;9.40;99.90;;;;;;3614753;39;20272;-78
2020/12/13 08:34:50;;;;;;;30.10;14.93;;;9.40;99.90;;;;;;3615158;39;20300;-77
2020/12/13 08:37:23;;;;;;;27.77;13.23;;;9.30;99.90;;;;;;3613854;39;20372;-77
2020/12/13 08:39:50;;;;;;;29.92;12.95;;;9.30;99.90;;;;;;3613146;39;20283;-78
2020/12/13 08:42:25;;;;;;;24.33;13.48;;;9.30;99.90;;;;;;3612831;39;20336;-78
2020/12/13 08:44:51;;;;;;;23.50;11.95;;;9.30;99.90;;;;;;3614074;39;20248;-78
2020/12/13 08:47:20;;;;;;;28.77;14.73;;;9.30;99.90;;;;;;3615590;39;20248;-78
2020/12/13 08:49:49;;;;;;;25.40;13.35;;;9.20;99.90;;;;;;3614807;39;20248;-78
2020/12/13 08:52:18;;;;;;;21.92;12.52;;;9.10;99.90;;;;;;3618515;39;20266;-78
2020/12/13 08:54:49;;;;;;;19.70;11.48;;;9.10;99.90;;;;;;3613210;39;20433;-78
2020/12/13 08:57:29;;;;;;;28.38;11.50;;;9.20;99.90;;;;;;3612641;39;20256;-78
2020/12/13 09:00:06;;;;;;;23.40;10.75;;;9.20;99.90;;;;;;3612687;39;20352;-78
2020/12/13 09:02:34;;;;;;;26.38;12.88;;;9.20;99.90;;;;;;3614687;39;20388;-78
2020/12/13 09:05:01;;;;;;;23.20;12.30;;;9.10;99.90;;;;;;3605893;39;20284;-78
2020/12/13 09:07:32;;;;;;;22.48;10.75;;;9.10;99.90;;;;;;3613267;39;20255;-78
2020/12/13 09:10:11;;;;;;;20.60;11.45;;;9.00;99.90;;;;;;3618042;39;20248;-77
2020/12/13 09:12:39;;;;;;;18.70;10.85;;;9.00;99.90;;;;;;3619338;39;20327;-78
2020/12/13 09:15:10;;;;;;;24.17;10.75;;;9.10;99.90;;;;;;3616843;39;20368;-77
2020/12/13 09:17:37;;;;;;;23.33;11.45;;;9.00;99.90;;;;;;3617218;39;20372;-77
2020/12/13 09:20:05;;;;;;;24.38;10.85;;;9.10;99.90;;;;;;3616357;39;20272;-78
2020/12/13 09:22:32;;;;;;;22.90;10.20;;;9.00;99.90;;;;;;3612518;39;20292;-78
2020/12/13 09:24:59;;;;;;;22.67;11.05;;;9.10;99.90;;;;;;3612870;39;20292;-78
2020/12/13 09:27:27;;;;;;;23.20;9.52;;;9.10;99.90;;;;;;3612082;39;20285;-77
2020/12/13 09:29:56;;;;;;;17.27;10.40;;;9.00;99.90;;;;;;3635047;32;20248;-79
2020/12/13 09:32:23;;;;;;;18.88;9.07;;;9.10;99.90;;;;;;3614846;39;20292;-78
2020/12/13 09:34:50;;;;;;;24.88;10.18;;;9.30;99.90;;;;;;3621328;32;20575;-82
2020/12/13 09:37:18;;;;;;;20.05;10.48;;;9.50;99.90;;;;;;3616686;39;20329;-80
2020/12/13 09:39:46;;;;;;;19.30;10.02;;;9.70;99.90;;;;;;3618829;39;20268;-80
2020/12/13 09:47:35;;;;;;;21.10;9.32;;;9.80;99.90;;;;;;3615095;32;20248;-80
2020/12/13 09:52:53;;;;;;;16.98;8.98;;;9.80;99.90;;;;;;3619528;32;20244;-83
2020/12/13 09:55:19;;;;;;;15.35;8.57;;;9.80;99.90;;;;;;3616163;39;20312;-79
2020/12/13 09:57:46;;;;;;;18.77;9.77;;;10.00;99.90;;;;;;3617917;39;20276;-79
2020/12/13 10:00:13;;;;;;;20.15;10.00;;;10.00;99.90;;;;;;3607581;39;20375;-79
2020/12/13 10:02:59;;;;;;;20.00;9.73;;;10.10;99.90;;;;;;3620292;39;20271;-79
2020/12/13 10:05:34;;;;;;;19.95;8.27;;;10.10;99.90;;;;;;3617663;39;20271;-78
2020/12/13 10:10:52;;;;;;;19.70;9.02;;;9.90;99.90;;;;;;3620620;32;20385;-77
2020/12/13 10:13:21;;;;;;;19.27;9.90;;;9.80;99.90;;;;;;3614483;39;20272;-77
2020/12/13 10:15:47;;;;;;;18.35;8.15;;;9.70;99.90;;;;;;3615531;39;20256;-78
2020/12/13 10:18:14;;;;;;;16.30;9.48;;;9.70;99.90;;;;;;3616600;32;20271;-77
2020/12/13 10:20:59;;;;;;;17.77;8.77;;;9.80;99.90;;;;;;3614849;39;20295;-77
2020/12/13 10:23:33;;;;;;;13.13;7.95;;;9.80;99.90;;;;;;3611506;39;20341;-77
2020/12/13 10:26:00;;;;;;;16.13;8.68;;;9.90;99.90;;;;;;3615534;39;20379;-77
2020/12/13 10:28:26;;;;;;;26.17;8.40;;;9.90;99.90;;;;;;3612657;39;20248;-77
2020/12/13 10:30:53;;;;;;;15.65;7.97;;;10.00;99.90;;;;;;3615714;39;20248;-77
2020/12/13 10:33:19;;;;;;;15.85;9.05;;;10.00;99.90;;;;;;3617355;39;20383;-77
2020/12/13 10:35:47;;;;;;;15.82;9.30;;;10.00;99.90;;;;;;3614318;39;20264;-77
2020/12/13 10:38:13;;;;;;;21.75;9.80;;;10.00;99.90;;;;;;3615270;39;20325;-77
2020/12/13 10:40:40;;;;;;;18.30;9.63;;;10.10;99.90;;;;;;3616108;39;20275;-77
2020/12/13 10:43:06;;;;;;;14.82;7.72;;;10.10;99.90;;;;;;3611229;39;20264;-77
2020/12/13 10:45:33;;;;;;;24.50;9.60;;;10.10;99.90;;;;;;3612304;39;20284;-77
2020/12/13 10:48:00;;;;;;;20.77;8.68;;;10.10;99.90;;;;;;3613142;39;20267;-77
2020/12/13 10:50:26;;;;;;;18.20;9.35;;;10.10;99.90;;;;;;3614966;39;20310;-77
2020/12/13 10:52:54;;;;;;;17.70;8.10;;;10.10;99.90;;;;;;3616581;39;20379;-77
2020/12/13 10:55:21;;;;;;;18.55;8.63;;;10.10;99.90;;;;;;3614617;39;20372;-77
2020/12/13 10:57:48;;;;;;;16.58;8.45;;;10.10;99.90;;;;;;3618347;39;20264;-79
2020/12/13 11:00:14;;;;;;;18.33;8.52;;;10.10;99.90;;;;;;3614741;39;20288;-81
2020/12/13 11:11:54;;;;;;;13.73;7.63;;;10.20;99.90;;;;;;3652102;31;20313;-80
2020/12/13 11:14:36;;;;;;;14.27;7.20;;;10.10;99.90;;;;;;3633363;39;20263;-82
2020/12/13 11:17:03;;;;;;;13.90;7.07;;;10.10;99.90;;;;;;3636291;39;20266;-79
2020/12/13 11:19:30;;;;;;;11.25;6.90;;;10.10;99.90;;;;;;3643630;39;20259;-79
2020/12/13 11:21:59;;;;;;;13.23;7.45;;;10.10;99.90;;;;;;3632314;39;20299;-79
2020/12/13 11:24:26;;;;;;;25.80;8.35;;;10.00;99.90;;;;;;3632082;39;20244;-78
2020/12/13 11:26:53;;;;;;;11.55;7.28;;;10.10;99.90;;;;;;3635514;39;20382;-80
2020/12/13 11:32:17;;;;;;;19.30;7.80;;;10.20;99.90;;;;;;3654324;31;20344;-82
2020/12/13 11:37:28;;;;;;;20.38;7.78;;;10.20;99.90;;;;;;3640145;31;20263;-83
2020/12/13 11:39:57;;;;;;;19.23;7.35;;;10.30;99.90;;;;;;3633387;39;20279;-82
2020/12/13 11:42:23;;;;;;;21.75;7.57;;;10.40;99.90;;;;;;3634600;39;20224;-82
2020/12/13 11:44:50;;;;;;;12.77;6.65;;;10.40;99.90;;;;;;3635761;39;20271;-82
2020/12/13 11:47:18;;;;;;;14.63;6.55;;;10.50;99.90;;;;;;3634690;39;20248;-78
2020/12/13 11:49:44;;;;;;;11.88;7.05;;;10.50;99.90;;;;;;3629897;39;20359;-78
2020/12/13 11:52:11;;;;;;;9.20;5.68;;;10.60;99.90;;;;;;3634636;39;20267;-78
2020/12/13 11:54:37;;;;;;;15.57;6.07;;;10.60;99.90;;;;;;3635373;39;20280;-78
2020/12/13 11:57:14;;;;;;;12.57;6.45;;;10.70;99.90;;;;;;3634589;39;20371;-79
2020/12/13 11:59:40;;;;;;;9.27;5.55;;;10.70;99.90;;;;;;3633055;39;20399;-80
2020/12/13 12:02:09;;;;;;;12.02;5.53;;;10.70;99.90;;;;;;3644015;31;20344;-80
2020/12/13 12:04:36;;;;;;;9.57;4.57;;;10.60;99.90;;;;;;3633282;39;20371;-80
2020/12/13 12:07:04;;;;;;;12.95;5.03;;;10.50;99.90;;;;;;3632413;39;20256;-80
2020/12/13 12:09:30;;;;;;;10.35;5.60;;;10.30;99.90;;;;;;3638579;39;20247;-79
2020/12/13 12:11:57;;;;;;;10.50;4.95;;;10.20;99.90;;;;;;3633751;39;20251;-79
2020/12/13 12:14:23;;;;;;;8.82;4.25;;;10.10;99.90;;;;;;3632377;39;20248;-79
2020/12/13 12:16:50;;;;;;;7.88;4.20;;;10.10;99.90;;;;;;3624259;39;20349;-79
2020/12/13 12:19:18;;;;;;;7.53;4.70;;;10.00;99.90;;;;;;3624607;39;20343;-79
2020/12/13 12:21:47;;;;;;;6.57;4.07;;;9.90;99.90;;;;;;3623879;39;20360;-79
2020/12/13 12:24:16;;;;;;;3.97;3.63;;;9.90;99.90;;;;;;3623849;39;20240;-78
2020/12/13 12:26:42;;;;;;;6.47;3.97;;;9.90;99.90;;;;;;3624466;39;20318;-78
2020/12/13 12:29:09;;;;;;;5.55;3.65;;;9.80;99.90;;;;;;3627632;39;20247;-78
2020/12/13 12:31:36;;;;;;;10.10;3.92;;;9.90;99.90;;;;;;3624601;39;20283;-78
2020/12/13 12:34:03;;;;;;;7.55;3.85;;;9.80;99.90;;;;;;3631236;39;20243;-78
2020/12/13 12:36:30;;;;;;;3.97;2.80;;;9.80;99.90;;;;;;3627585;39;20443;-78
2020/12/13 12:38:58;;;;;;;3.65;2.83;;;9.80;99.90;;;;;;3628353;39;20262;-78
2020/12/13 12:41:24;;;;;;;5.20;2.92;;;9.70;99.90;;;;;;3630816;31;20283;-77
2020/12/13 12:43:52;;;;;;;7.30;3.03;;;9.70;99.90;;;;;;3644057;31;20271;-77
2020/12/13 12:46:19;;;;;;;3.70;2.92;;;9.70;99.90;;;;;;3622967;39;20271;-77
2020/12/13 12:48:48;;;;;;;5.13;2.42;;;9.80;99.90;;;;;;3630928;31;20255;-77
2020/12/13 12:51:16;;;;;;;5.13;2.53;;;9.80;99.90;;;;;;3627367;39;20264;-77
2020/12/13 12:53:43;;;;;;;6.43;2.60;;;9.80;99.90;;;;;;3620969;39;20281;-77
2020/12/13 12:56:10;;;;;;;4.30;2.53;;;9.80;99.90;;;;;;3627922;39;21206;-79
2020/12/13 12:58:50;;;;;;;3.92;2.65;;;9.90;99.90;;;;;;3623377;39;20331;-82
2020/12/13 13:01:18;;;;;;;6.70;2.78;;;10.00;99.90;;;;;;3628431;39;20631;-82
2020/12/13 13:03:47;;;;;;;5.53;2.47;;;10.00;99.90;;;;;;3640339;31;20283;-78
2020/12/13 13:06:40;;;;;;;11.50;3.38;;;10.00;99.90;;;;;;3676182;32;20925;-78
2020/12/13 13:09:15;;;;;;;14.10;2.78;;;10.10;99.90;;;;;;3634969;31;20272;-79
2020/12/13 13:11:43;;;;;;;5.45;3.20;;;10.10;99.90;;;;;;3631210;31;20267;-79
2020/12/13 13:14:11;;;;;;;8.13;2.58;;;10.10;99.90;;;;;;3623916;39;20390;-79
2020/12/13 13:16:38;;;;;;;7.45;3.30;;;10.10;99.90;;;;;;3628164;39;20278;-79